Verona-Villafranca Valerio Catullo Airport

LIPX · 威尼托, 意大利

罗盘
风向 的 风向 030° Verona Villafranca Airport 4/22
风: 6 kt, 2 beaufort

6 kt

1 kt
改变
0 ft 2.000 4.000 6.000 8.000 10.000
Cloud Cloud Cloud Cloud
SCT 2.500
Cloud Cloud Cloud Cloud Cloud Cloud
BKN 6.000
METAR LIPX 281250Z 03006KT 7000 RA SCT025 BKN060 12/11 Q1017 RESHRA

METAR Verona Villafranca Airport - LIPX/VRN

Verona Villafranca Airport是,意大利中的大型机场。 该机场位于纬度45,39695和经度10,89040。 该机场有一条跑道: 4/22. 本场的ICAO机场代码为LIPX。 该机场的IATA代码为VRN。 机场在Milano FIR中。

该航空气象观测是针对Verona Villafranca Airport在2024年2月28日 13:50, 当地时间进行的。

机场观察

风向为030°,速度为6 kt。

可见度为7 km。

有疏云,零星散落的云朵在2.500 ft的高度 和 碎云在6.000 ft的高度。 破损或更高的上限为6.000 ft。

当前天气为雨。 温度和风寒是12 °C。 露点为11 °C,相对湿度为94%。 海平面上的气压为1017 hPa (QNH)。 最近是阵雨 雨。

白天

今天,太阳从06:57升起,在18:00降落。 这适用于Verona Villafranca Airport,世界夏令时可能有所不同。 当地时间与世界标准时间之间的时差为+1 小时。 当前,没有夏令时有效。

公司介绍

我们没有关于这个机场的公司信息。

体会

到Vliegles.nl去找飞行课程,跳伞和其他飞行体验。 浏览页面,了解Verona Villafranca Airport附近所有可用的活动。 你也可以使用搜索功能来寻找你所在地附近的特定飞行课程、跳伞或其他飞行体验。

跑道

Id 标题 侧风 逆风 侧风 %
4/22 044°-224° 1 kt 6 kt 24 %

逆风成分最大的方向会被突出显示,并用于横风计算。 这并不一定意味着这个方向在使用。

乌云

2.500 ft SCT 疏云,零星散落的云朵
6.000 ft BKN 碎云

温度 & 天气

天气
最近的 阵雨 雨
温度 12 °C
露点 11 °C
相对湿度 94%
Kp-index 0 (0-9)

白天

日出
06:57
中午
12:29
日落
18:00 (3:56)

小工具

你想在你的网站上有一个关于Verona Villafranca Airport的当前航空天气(METAR)的小部件吗?

显示HTML代码
?>